sensor_id;sensor_type;location;lat;lon;timestamp;P1;durP1;ratioP1;P2;durP2;ratioP2
35488;SDS011;21602;55.670;37.578;2024-03-06T00:01:44;1.60;;;1.23;;
35488;SDS011;21602;55.670;37.578;2024-03-06T00:04:10;2.23;;;1.10;;
35488;SDS011;21602;55.670;37.578;2024-03-06T00:06:39;2.00;;;1.50;;
35488;SDS011;21602;55.670;37.578;2024-03-06T00:09:05;3.10;;;1.42;;
35488;SDS011;21602;55.670;37.578;2024-03-06T00:11:30;2.47;;;1.20;;
35488;SDS011;21602;55.670;37.578;2024-03-06T00:13:56;1.50;;;1.40;;
35488;SDS011;21602;55.670;37.578;2024-03-06T00:16:22;2.73;;;1.30;;
35488;SDS011;21602;55.670;37.578;2024-03-06T00:18:48;4.30;;;1.23;;
35488;SDS011;21602;55.670;37.578;2024-03-06T00:21:14;3.70;;;1.30;;
35488;SDS011;21602;55.670;37.578;2024-03-06T00:23:43;5.83;;;1.40;;
35488;SDS011;21602;55.670;37.578;2024-03-06T00:26:14;2.27;;;1.67;;
35488;SDS011;21602;55.670;37.578;2024-03-06T00:28:39;4.18;;;1.48;;
35488;SDS011;21602;55.670;37.578;2024-03-06T00:31:08;2.60;;;1.60;;
35488;SDS011;21602;55.670;37.578;2024-03-06T00:33:34;3.20;;;1.30;;
35488;SDS011;21602;55.670;37.578;2024-03-06T00:36:08;1.93;;;1.50;;
35488;SDS011;21602;55.670;37.578;2024-03-06T00:38:34;2.43;;;1.77;;
35488;SDS011;21602;55.670;37.578;2024-03-06T00:41:00;3.90;;;1.80;;
35488;SDS011;21602;55.670;37.578;2024-03-06T00:43:25;5.10;;;1.87;;
35488;SDS011;21602;55.670;37.578;2024-03-06T00:45:51;3.47;;;1.93;;
35488;SDS011;21602;55.670;37.578;2024-03-06T00:48:17;3.93;;;1.80;;
35488;SDS011;21602;55.670;37.578;2024-03-06T00:50:45;3.47;;;1.70;;
35488;SDS011;21602;55.670;37.578;2024-03-06T00:53:11;3.67;;;1.60;;
35488;SDS011;21602;55.670;37.578;2024-03-06T00:55:36;7.03;;;1.83;;
35488;SDS011;21602;55.670;37.578;2024-03-06T00:58:02;2.00;;;1.33;;
35488;SDS011;21602;55.670;37.578;2024-03-06T01:00:29;3.67;;;2.10;;
35488;SDS011;21602;55.670;37.578;2024-03-06T01:02:55;2.87;;;1.30;;
35488;SDS011;21602;55.670;37.578;2024-03-06T01:05:21;3.83;;;1.70;;
35488;SDS011;21602;55.670;37.578;2024-03-06T01:07:47;4.27;;;1.73;;
35488;SDS011;21602;55.670;37.578;2024-03-06T01:10:12;1.90;;;1.23;;
35488;SDS011;21602;55.670;37.578;2024-03-06T01:12:39;2.07;;;1.53;;
35488;SDS011;21602;55.670;37.578;2024-03-06T01:15:04;3.23;;;1.50;;
35488;SDS011;21602;55.670;37.578;2024-03-06T01:17:30;3.50;;;1.80;;
35488;SDS011;21602;55.670;37.578;2024-03-06T01:19:56;1.43;;;1.13;;
35488;SDS011;21602;55.670;37.578;2024-03-06T01:22:22;3.63;;;1.50;;
35488;SDS011;21602;55.670;37.578;2024-03-06T01:24:48;2.73;;;1.47;;
35488;SDS011;21602;55.670;37.578;2024-03-06T01:27:16;2.22;;;1.55;;
35488;SDS011;21602;55.670;37.578;2024-03-06T01:29:42;2.87;;;1.40;;
35488;SDS011;21602;55.670;37.578;2024-03-06T01:32:08;5.10;;;1.63;;
35488;SDS011;21602;55.670;37.578;2024-03-06T01:34:35;3.27;;;1.40;;
35488;SDS011;21602;55.670;37.578;2024-03-06T01:37:01;2.67;;;1.40;;
35488;SDS011;21602;55.670;37.578;2024-03-06T01:39:26;2.37;;;1.40;;
35488;SDS011;21602;55.670;37.578;2024-03-06T01:41:52;5.13;;;2.17;;
35488;SDS011;21602;55.670;37.578;2024-03-06T01:44:18;1.97;;;1.43;;
35488;SDS011;21602;55.670;37.578;2024-03-06T01:46:45;2.97;;;1.40;;
35488;SDS011;21602;55.670;37.578;2024-03-06T01:49:15;3.40;;;1.20;;
35488;SDS011;21602;55.670;37.578;2024-03-06T01:51:41;2.87;;;1.63;;
35488;SDS011;21602;55.670;37.578;2024-03-06T01:54:10;3.30;;;1.60;;
35488;SDS011;21602;55.670;37.578;2024-03-06T01:56:36;4.83;;;1.50;;
35488;SDS011;21602;55.670;37.578;2024-03-06T01:59:08;1.83;;;1.30;;
35488;SDS011;21602;55.670;37.578;2024-03-06T02:01:34;3.65;;;1.40;;
35488;SDS011;21602;55.670;37.578;2024-03-06T02:04:01;2.87;;;1.37;;
35488;SDS011;21602;55.670;37.578;2024-03-06T02:06:27;4.10;;;1.83;;
35488;SDS011;21602;55.670;37.578;2024-03-06T02:08:53;2.07;;;1.70;;
35488;SDS011;21602;55.670;37.578;2024-03-06T02:11:19;3.00;;;1.87;;
35488;SDS011;21602;55.670;37.578;2024-03-06T02:13:45;5.23;;;1.73;;
35488;SDS011;21602;55.670;37.578;2024-03-06T02:16:11;7.07;;;2.10;;
35488;SDS011;21602;55.670;37.578;2024-03-06T02:18:37;3.10;;;1.60;;
35488;SDS011;21602;55.670;37.578;2024-03-06T02:21:06;1.63;;;1.20;;
35488;SDS011;21602;55.670;37.578;2024-03-06T02:23:32;2.73;;;1.63;;
35488;SDS011;21602;55.670;37.578;2024-03-06T02:25:58;2.47;;;1.30;;
35488;SDS011;21602;55.670;37.578;2024-03-06T02:28:24;2.70;;;1.43;;
35488;SDS011;21602;55.670;37.578;2024-03-06T02:30:50;2.63;;;1.40;;
35488;SDS011;21602;55.670;37.578;2024-03-06T02:33:16;3.00;;;1.80;;
35488;SDS011;21602;55.670;37.578;2024-03-06T02:35:43;4.07;;;1.57;;
35488;SDS011;21602;55.670;37.578;2024-03-06T02:38:10;3.70;;;1.70;;
35488;SDS011;21602;55.670;37.578;2024-03-06T02:40:35;2.07;;;1.43;;
35488;SDS011;21602;55.670;37.578;2024-03-06T02:43:01;3.30;;;2.03;;
35488;SDS011;21602;55.670;37.578;2024-03-06T02:45:27;3.50;;;1.50;;
35488;SDS011;21602;55.670;37.578;2024-03-06T02:47:53;2.87;;;1.47;;
35488;SDS011;21602;55.670;37.578;2024-03-06T02:50:19;3.20;;;2.13;;
35488;SDS011;21602;55.670;37.578;2024-03-06T02:52:46;2.30;;;1.30;;
35488;SDS011;21602;55.670;37.578;2024-03-06T02:55:12;2.83;;;1.20;;
35488;SDS011;21602;55.670;37.578;2024-03-06T02:57:38;4.30;;;1.50;;
35488;SDS011;21602;55.670;37.578;2024-03-06T03:00:04;2.57;;;1.60;;
35488;SDS011;21602;55.670;37.578;2024-03-06T03:02:30;2.93;;;1.70;;
35488;SDS011;21602;55.670;37.578;2024-03-06T03:04:56;3.00;;;1.80;;
35488;SDS011;21602;55.670;37.578;2024-03-06T03:07:22;8.07;;;1.50;;
35488;SDS011;21602;55.670;37.578;2024-03-06T03:09:48;2.30;;;1.40;;
35488;SDS011;21602;55.670;37.578;2024-03-06T03:12:14;3.60;;;1.70;;
35488;SDS011;21602;55.670;37.578;2024-03-06T03:14:40;4.20;;;1.60;;
35488;SDS011;21602;55.670;37.578;2024-03-06T03:17:06;2.80;;;1.67;;
35488;SDS011;21602;55.670;37.578;2024-03-06T03:19:32;4.27;;;1.73;;
35488;SDS011;21602;55.670;37.578;2024-03-06T03:21:58;2.97;;;1.40;;
35488;SDS011;21602;55.670;37.578;2024-03-06T03:24:24;2.93;;;1.67;;
35488;SDS011;21602;55.670;37.578;2024-03-06T03:26:53;4.27;;;1.70;;
35488;SDS011;21602;55.670;37.578;2024-03-06T03:29:19;3.53;;;1.60;;
35488;SDS011;21602;55.670;37.578;2024-03-06T03:31:46;3.70;;;2.00;;
35488;SDS011;21602;55.670;37.578;2024-03-06T03:34:12;2.33;;;1.73;;
35488;SDS011;21602;55.670;37.578;2024-03-06T03:36:41;5.10;;;1.87;;
35488;SDS011;21602;55.670;37.578;2024-03-06T03:39:11;2.70;;;1.50;;
35488;SDS011;21602;55.670;37.578;2024-03-06T03:41:46;2.33;;;1.75;;
35488;SDS011;21602;55.670;37.578;2024-03-06T03:44:16;7.60;;;1.93;;
35488;SDS011;21602;55.670;37.578;2024-03-06T03:46:44;5.33;;;2.10;;
35488;SDS011;21602;55.670;37.578;2024-03-06T03:49:10;2.27;;;1.70;;
35488;SDS011;21602;55.670;37.578;2024-03-06T03:51:40;8.30;;;2.37;;
35488;SDS011;21602;55.670;37.578;2024-03-06T03:54:06;3.47;;;1.60;;
35488;SDS011;21602;55.670;37.578;2024-03-06T03:56:32;5.00;;;1.87;;
35488;SDS011;21602;55.670;37.578;2024-03-06T03:58:59;4.43;;;1.90;;
35488;SDS011;21602;55.670;37.578;2024-03-06T04:01:24;4.40;;;2.30;;
35488;SDS011;21602;55.670;37.578;2024-03-06T04:03:51;6.00;;;1.97;;
35488;SDS011;21602;55.670;37.578;2024-03-06T04:06:17;3.03;;;2.00;;
35488;SDS011;21602;55.670;37.578;2024-03-06T04:08:44;4.00;;;1.97;;
35488;SDS011;21602;55.670;37.578;2024-03-06T04:11:10;4.30;;;1.90;;
35488;SDS011;21602;55.670;37.578;2024-03-06T04:13:36;2.90;;;2.00;;
35488;SDS011;21602;55.670;37.578;2024-03-06T04:16:02;3.50;;;1.80;;
35488;SDS011;21602;55.670;37.578;2024-03-06T04:18:29;4.50;;;2.53;;
35488;SDS011;21602;55.670;37.578;2024-03-06T04:21:02;4.17;;;2.40;;
35488;SDS011;21602;55.670;37.578;2024-03-06T04:23:38;2.97;;;2.10;;
35488;SDS011;21602;55.670;37.578;2024-03-06T04:26:04;3.43;;;1.80;;
35488;SDS011;21602;55.670;37.578;2024-03-06T04:28:31;4.20;;;2.60;;
35488;SDS011;21602;55.670;37.578;2024-03-06T04:30:57;2.63;;;2.00;;
35488;SDS011;21602;55.670;37.578;2024-03-06T04:33:23;3.67;;;2.13;;
35488;SDS011;21602;55.670;37.578;2024-03-06T04:35:49;4.20;;;2.17;;
35488;SDS011;21602;55.670;37.578;2024-03-06T04:38:15;2.43;;;1.83;;
35488;SDS011;21602;55.670;37.578;2024-03-06T04:40:41;5.00;;;1.97;;
35488;SDS011;21602;55.670;37.578;2024-03-06T04:43:09;5.90;;;2.30;;
35488;SDS011;21602;55.670;37.578;2024-03-06T04:45:37;3.93;;;1.87;;
35488;SDS011;21602;55.670;37.578;2024-03-06T04:48:03;5.50;;;2.00;;
35488;SDS011;21602;55.670;37.578;2024-03-06T04:50:29;6.43;;;2.20;;
35488;SDS011;21602;55.670;37.578;2024-03-06T04:52:55;6.23;;;2.17;;
35488;SDS011;21602;55.670;37.578;2024-03-06T04:55:21;7.73;;;2.63;;
35488;SDS011;21602;55.670;37.578;2024-03-06T04:57:48;5.87;;;2.00;;
35488;SDS011;21602;55.670;37.578;2024-03-06T05:00:14;5.70;;;1.93;;
35488;SDS011;21602;55.670;37.578;2024-03-06T05:02:40;3.43;;;1.77;;
35488;SDS011;21602;55.670;37.578;2024-03-06T05:05:07;4.57;;;2.00;;
35488;SDS011;21602;55.670;37.578;2024-03-06T05:07:36;2.73;;;1.57;;
35488;SDS011;21602;55.670;37.578;2024-03-06T05:10:02;4.27;;;1.90;;
35488;SDS011;21602;55.670;37.578;2024-03-06T05:12:29;3.73;;;2.13;;
35488;SDS011;21602;55.670;37.578;2024-03-06T05:14:55;9.67;;;2.37;;
35488;SDS011;21602;55.670;37.578;2024-03-06T05:17:21;4.37;;;1.93;;
35488;SDS011;21602;55.670;37.578;2024-03-06T05:19:47;3.60;;;2.30;;
35488;SDS011;21602;55.670;37.578;2024-03-06T05:22:14;4.07;;;1.90;;
35488;SDS011;21602;55.670;37.578;2024-03-06T05:24:41;4.93;;;2.20;;
35488;SDS011;21602;55.670;37.578;2024-03-06T05:27:08;5.23;;;2.27;;
35488;SDS011;21602;55.670;37.578;2024-03-06T05:29:35;6.37;;;2.30;;
35488;SDS011;21602;55.670;37.578;2024-03-06T05:32:04;3.73;;;2.03;;
35488;SDS011;21602;55.670;37.578;2024-03-06T05:34:33;4.50;;;2.67;;
35488;SDS011;21602;55.670;37.578;2024-03-06T05:37:01;7.20;;;2.07;;
35488;SDS011;21602;55.670;37.578;2024-03-06T05:39:33;6.40;;;2.00;;
35488;SDS011;21602;55.670;37.578;2024-03-06T05:42:05;5.00;;;2.60;;
35488;SDS011;21602;55.670;37.578;2024-03-06T05:44:31;4.53;;;2.43;;
35488;SDS011;21602;55.670;37.578;2024-03-06T05:46:58;6.53;;;2.77;;
35488;SDS011;21602;55.670;37.578;2024-03-06T05:49:26;7.68;;;3.10;;
35488;SDS011;21602;55.670;37.578;2024-03-06T05:51:53;6.10;;;2.97;;
35488;SDS011;21602;55.670;37.578;2024-03-06T05:54:22;4.73;;;3.20;;
35488;SDS011;21602;55.670;37.578;2024-03-06T05:56:49;4.37;;;2.87;;
35488;SDS011;21602;55.670;37.578;2024-03-06T05:59:16;10.23;;;3.28;;
35488;SDS011;21602;55.670;37.578;2024-03-06T06:01:43;8.83;;;3.57;;
35488;SDS011;21602;55.670;37.578;2024-03-06T06:04:10;11.67;;;3.20;;
35488;SDS011;21602;55.670;37.578;2024-03-06T06:06:36;18.10;;;2.83;;
35488;SDS011;21602;55.670;37.578;2024-03-06T06:09:02;7.33;;;2.70;;
35488;SDS011;21602;55.670;37.578;2024-03-06T06:11:31;8.13;;;3.23;;
35488;SDS011;21602;55.670;37.578;2024-03-06T06:14:01;5.27;;;3.20;;
35488;SDS011;21602;55.670;37.578;2024-03-06T06:16:27;5.87;;;2.53;;
35488;SDS011;21602;55.670;37.578;2024-03-06T06:19:00;5.67;;;2.87;;
35488;SDS011;21602;55.670;37.578;2024-03-06T06:21:26;6.47;;;2.93;;
35488;SDS011;21602;55.670;37.578;2024-03-06T06:23:54;6.13;;;2.90;;
35488;SDS011;21602;55.670;37.578;2024-03-06T06:26:22;5.13;;;2.70;;
35488;SDS011;21602;55.670;37.578;2024-03-06T06:28:48;18.73;;;3.50;;
35488;SDS011;21602;55.670;37.578;2024-03-06T06:31:14;14.00;;;3.47;;
35488;SDS011;21602;55.670;37.578;2024-03-06T06:33:40;5.67;;;3.23;;
35488;SDS011;21602;55.670;37.578;2024-03-06T06:36:05;14.45;;;3.78;;
35488;SDS011;21602;55.670;37.578;2024-03-06T06:38:31;6.23;;;3.00;;
35488;SDS011;21602;55.670;37.578;2024-03-06T06:40:57;8.98;;;3.30;;
35488;SDS011;21602;55.670;37.578;2024-03-06T06:43:23;7.38;;;2.90;;
35488;SDS011;21602;55.670;37.578;2024-03-06T06:45:49;13.90;;;5.05;;
35488;SDS011;21602;55.670;37.578;2024-03-06T06:48:16;6.40;;;3.38;;
35488;SDS011;21602;55.670;37.578;2024-03-06T06:50:42;11.13;;;2.90;;
35488;SDS011;21602;55.670;37.578;2024-03-06T06:53:07;7.43;;;3.58;;
35488;SDS011;21602;55.670;37.578;2024-03-06T06:55:36;4.95;;;2.83;;
35488;SDS011;21602;55.670;37.578;2024-03-06T06:58:06;12.88;;;3.53;;
35488;SDS011;21602;55.670;37.578;2024-03-06T07:00:32;7.90;;;3.47;;
35488;SDS011;21602;55.670;37.578;2024-03-06T07:02:59;9.57;;;3.22;;
35488;SDS011;21602;55.670;37.578;2024-03-06T07:05:27;6.93;;;3.75;;
35488;SDS011;21602;55.670;37.578;2024-03-06T07:10:19;15.80;;;2.85;;
35488;SDS011;21602;55.670;37.578;2024-03-06T07:12:48;11.38;;;3.47;;
35488;SDS011;21602;55.670;37.578;2024-03-06T07:15:28;11.80;;;3.20;;
35488;SDS011;21602;55.670;37.578;2024-03-06T07:17:54;7.47;;;2.88;;
35488;SDS011;21602;55.670;37.578;2024-03-06T07:20:20;17.48;;;3.22;;
35488;SDS011;21602;55.670;37.578;2024-03-06T07:22:51;8.90;;;3.15;;
35488;SDS011;21602;55.670;37.578;2024-03-06T07:25:24;6.78;;;3.25;;
35488;SDS011;21602;55.670;37.578;2024-03-06T07:27:53;11.20;;;2.85;;
35488;SDS011;21602;55.670;37.578;2024-03-06T07:30:27;6.57;;;3.33;;
35488;SDS011;21602;55.670;37.578;2024-03-06T07:32:57;5.88;;;2.72;;
35488;SDS011;21602;55.670;37.578;2024-03-06T07:35:23;9.55;;;4.05;;
35488;SDS011;21602;55.670;37.578;2024-03-06T07:37:54;15.23;;;3.67;;
35488;SDS011;21602;55.670;37.578;2024-03-06T07:40:22;5.03;;;2.05;;
35488;SDS011;21602;55.670;37.578;2024-03-06T07:42:48;9.07;;;2.97;;
35488;SDS011;21602;55.670;37.578;2024-03-06T07:45:14;7.35;;;2.35;;
35488;SDS011;21602;55.670;37.578;2024-03-06T07:47:40;5.07;;;2.88;;
35488;SDS011;21602;55.670;37.578;2024-03-06T07:50:08;8.82;;;2.70;;
35488;SDS011;21602;55.670;37.578;2024-03-06T07:52:40;8.60;;;2.30;;
35488;SDS011;21602;55.670;37.578;2024-03-06T07:55:06;10.48;;;3.38;;
35488;SDS011;21602;55.670;37.578;2024-03-06T07:57:32;7.72;;;3.28;;
35488;SDS011;21602;55.670;37.578;2024-03-06T07:59:58;8.77;;;2.83;;
35488;SDS011;21602;55.670;37.578;2024-03-06T08:02:24;6.47;;;2.30;;
35488;SDS011;21602;55.670;37.578;2024-03-06T08:04:49;6.93;;;1.90;;
35488;SDS011;21602;55.670;37.578;2024-03-06T08:07:15;4.15;;;1.40;;
35488;SDS011;21602;55.670;37.578;2024-03-06T08:09:44;2.92;;;1.77;;
35488;SDS011;21602;55.670;37.578;2024-03-06T08:12:17;3.78;;;1.58;;
35488;SDS011;21602;55.670;37.578;2024-03-06T08:14:43;4.25;;;1.63;;
35488;SDS011;21602;55.670;37.578;2024-03-06T08:17:08;3.58;;;1.80;;
35488;SDS011;21602;55.670;37.578;2024-03-06T08:19:34;10.75;;;1.70;;
35488;SDS011;21602;55.670;37.578;2024-03-06T08:24:32;5.15;;;1.90;;
35488;SDS011;21602;55.670;37.578;2024-03-06T08:27:00;3.78;;;1.52;;
35488;SDS011;21602;55.670;37.578;2024-03-06T08:29:26;4.55;;;2.30;;
35488;SDS011;21602;55.670;37.578;2024-03-06T08:31:52;7.18;;;2.30;;
35488;SDS011;21602;55.670;37.578;2024-03-06T08:34:18;4.20;;;1.77;;
35488;SDS011;21602;55.670;37.578;2024-03-06T08:36:44;4.82;;;1.88;;
35488;SDS011;21602;55.670;37.578;2024-03-06T08:39:11;4.82;;;2.75;;
35488;SDS011;21602;55.670;37.578;2024-03-06T08:41:43;7.80;;;2.30;;
35488;SDS011;21602;55.670;37.578;2024-03-06T08:44:09;7.22;;;2.92;;
35488;SDS011;21602;55.670;37.578;2024-03-06T08:46:34;9.75;;;3.15;;
35488;SDS011;21602;55.670;37.578;2024-03-06T08:49:03;5.15;;;1.85;;
35488;SDS011;21602;55.670;37.578;2024-03-06T08:51:29;5.18;;;2.08;;
35488;SDS011;21602;55.670;37.578;2024-03-06T08:53:55;12.25;;;2.53;;
35488;SDS011;21602;55.670;37.578;2024-03-06T08:56:24;4.97;;;2.00;;
35488;SDS011;21602;55.670;37.578;2024-03-06T08:58:49;7.60;;;2.53;;
35488;SDS011;21602;55.670;37.578;2024-03-06T09:01:15;3.63;;;2.20;;
35488;SDS011;21602;55.670;37.578;2024-03-06T09:03:41;7.65;;;2.38;;
35488;SDS011;21602;55.670;37.578;2024-03-06T09:06:10;4.63;;;2.45;;
35488;SDS011;21602;55.670;37.578;2024-03-06T09:08:59;10.18;;;2.83;;
35488;SDS011;21602;55.670;37.578;2024-03-06T09:11:25;5.25;;;1.73;;
35488;SDS011;21602;55.670;37.578;2024-03-06T09:13:50;7.95;;;2.20;;
35488;SDS011;21602;55.670;37.578;2024-03-06T09:16:19;5.47;;;2.45;;
35488;SDS011;21602;55.670;37.578;2024-03-06T09:18:44;5.45;;;2.10;;
35488;SDS011;21602;55.670;37.578;2024-03-06T09:21:20;4.70;;;2.25;;
35488;SDS011;21602;55.670;37.578;2024-03-06T09:23:52;7.85;;;2.72;;
35488;SDS011;21602;55.670;37.578;2024-03-06T09:26:20;5.38;;;2.70;;
35488;SDS011;21602;55.670;37.578;2024-03-06T09:28:46;7.43;;;1.77;;
35488;SDS011;21602;55.670;37.578;2024-03-06T09:31:13;4.15;;;1.98;;
35488;SDS011;21602;55.670;37.578;2024-03-06T09:33:43;10.70;;;2.42;;
35488;SDS011;21602;55.670;37.578;2024-03-06T09:41:35;8.93;;;2.45;;
35488;SDS011;21602;55.670;37.578;2024-03-06T09:44:11;8.13;;;2.10;;
35488;SDS011;21602;55.670;37.578;2024-03-06T09:46:42;6.68;;;2.60;;
35488;SDS011;21602;55.670;37.578;2024-03-06T09:49:15;4.63;;;2.40;;
35488;SDS011;21602;55.670;37.578;2024-03-06T09:51:45;8.63;;;2.22;;
35488;SDS011;21602;55.670;37.578;2024-03-06T09:54:13;8.25;;;2.15;;
35488;SDS011;21602;55.670;37.578;2024-03-06T09:56:46;7.65;;;1.70;;
35488;SDS011;21602;55.670;37.578;2024-03-06T09:59:15;3.85;;;2.03;;
35488;SDS011;21602;55.670;37.578;2024-03-06T10:04:26;5.25;;;1.60;;
35488;SDS011;21602;55.670;37.578;2024-03-06T10:06:56;10.40;;;1.90;;
35488;SDS011;21602;55.670;37.578;2024-03-06T10:09:27;8.95;;;1.83;;
35488;SDS011;21602;55.670;37.578;2024-03-06T10:14:22;4.18;;;1.75;;
35488;SDS011;21602;55.670;37.578;2024-03-06T10:19:17;5.07;;;2.35;;
35488;SDS011;21602;55.670;37.578;2024-03-06T10:21:47;6.00;;;2.10;;
35488;SDS011;21602;55.670;37.578;2024-03-06T10:24:22;7.30;;;2.53;;
35488;SDS011;21602;55.670;37.578;2024-03-06T10:26:49;7.70;;;2.25;;
35488;SDS011;21602;55.670;37.578;2024-03-06T10:29:31;5.95;;;1.40;;
35488;SDS011;21602;55.670;37.578;2024-03-06T10:31:58;12.68;;;1.80;;
35488;SDS011;21602;55.670;37.578;2024-03-06T10:34:29;5.20;;;1.77;;
35488;SDS011;21602;55.670;37.578;2024-03-06T10:37:14;3.83;;;1.80;;
35488;SDS011;21602;55.670;37.578;2024-03-06T10:39:41;3.20;;;1.63;;
35488;SDS011;21602;55.670;37.578;2024-03-06T10:42:12;12.35;;;2.17;;
35488;SDS011;21602;55.670;37.578;2024-03-06T10:44:51;6.13;;;1.90;;
35488;SDS011;21602;55.670;37.578;2024-03-06T10:47:19;5.45;;;2.05;;
35488;SDS011;21602;55.670;37.578;2024-03-06T10:49:46;5.65;;;2.10;;
35488;SDS011;21602;55.670;37.578;2024-03-06T10:52:22;7.30;;;2.33;;
35488;SDS011;21602;55.670;37.578;2024-03-06T10:54:54;9.77;;;2.08;;
35488;SDS011;21602;55.670;37.578;2024-03-06T10:57:29;4.32;;;2.15;;
35488;SDS011;21602;55.670;37.578;2024-03-06T10:59:56;7.82;;;2.63;;
35488;SDS011;21602;55.670;37.578;2024-03-06T11:02:30;5.88;;;2.10;;
35488;SDS011;21602;55.670;37.578;2024-03-06T11:05:01;6.90;;;2.30;;
35488;SDS011;21602;55.670;37.578;2024-03-06T11:07:34;7.43;;;2.13;;
35488;SDS011;21602;55.670;37.578;2024-03-06T11:10:00;5.78;;;2.55;;
35488;SDS011;21602;55.670;37.578;2024-03-06T11:12:39;3.17;;;2.00;;
35488;SDS011;21602;55.670;37.578;2024-03-06T11:15:14;7.72;;;2.40;;
35488;SDS011;21602;55.670;37.578;2024-03-06T11:20:16;5.50;;;1.80;;
35488;SDS011;21602;55.670;37.578;2024-03-06T11:28:11;5.95;;;2.30;;
35488;SDS011;21602;55.670;37.578;2024-03-06T11:33:45;11.82;;;2.15;;
35488;SDS011;21602;55.670;37.578;2024-03-06T11:38:53;8.05;;;2.40;;
35488;SDS011;21602;55.670;37.578;2024-03-06T11:44:05;12.38;;;2.78;;
35488;SDS011;21602;55.670;37.578;2024-03-06T11:46:46;8.35;;;2.60;;
35488;SDS011;21602;55.670;37.578;2024-03-06T11:51:46;8.20;;;3.03;;
35488;SDS011;21602;55.670;37.578;2024-03-06T11:54:14;5.50;;;2.10;;
35488;SDS011;21602;55.670;37.578;2024-03-06T11:56:40;4.45;;;2.35;;
35488;SDS011;21602;55.670;37.578;2024-03-06T11:59:07;9.10;;;2.50;;
35488;SDS011;21602;55.670;37.578;2024-03-06T12:01:33;6.45;;;2.00;;
35488;SDS011;21602;55.670;37.578;2024-03-06T12:04:00;7.88;;;2.63;;
35488;SDS011;21602;55.670;37.578;2024-03-06T12:06:27;6.25;;;2.30;;
35488;SDS011;21602;55.670;37.578;2024-03-06T12:08:53;5.03;;;2.30;;
35488;SDS011;21602;55.670;37.578;2024-03-06T12:11:19;5.72;;;2.47;;
35488;SDS011;21602;55.670;37.578;2024-03-06T12:13:49;9.70;;;2.70;;
35488;SDS011;21602;55.670;37.578;2024-03-06T12:16:16;3.88;;;1.90;;
35488;SDS011;21602;55.670;37.578;2024-03-06T12:18:42;8.75;;;1.90;;
35488;SDS011;21602;55.670;37.578;2024-03-06T12:21:10;5.78;;;1.67;;
35488;SDS011;21602;55.670;37.578;2024-03-06T12:23:36;4.23;;;1.60;;
35488;SDS011;21602;55.670;37.578;2024-03-06T12:26:03;7.93;;;2.20;;
35488;SDS011;21602;55.670;37.578;2024-03-06T12:28:34;5.80;;;2.55;;
35488;SDS011;21602;55.670;37.578;2024-03-06T12:31:04;7.30;;;2.30;;
35488;SDS011;21602;55.670;37.578;2024-03-06T12:33:30;4.30;;;2.13;;
35488;SDS011;21602;55.670;37.578;2024-03-06T12:36:03;6.63;;;2.03;;
35488;SDS011;21602;55.670;37.578;2024-03-06T12:38:31;12.13;;;2.65;;
35488;SDS011;21602;55.670;37.578;2024-03-06T12:40:57;6.40;;;1.90;;
35488;SDS011;21602;55.670;37.578;2024-03-06T12:43:24;3.20;;;1.92;;
35488;SDS011;21602;55.670;37.578;2024-03-06T12:45:50;5.03;;;1.63;;
35488;SDS011;21602;55.670;37.578;2024-03-06T12:48:20;8.90;;;1.80;;
35488;SDS011;21602;55.670;37.578;2024-03-06T12:50:47;4.80;;;1.57;;
35488;SDS011;21602;55.670;37.578;2024-03-06T12:53:22;5.18;;;2.05;;
35488;SDS011;21602;55.670;37.578;2024-03-06T12:55:50;4.50;;;1.70;;
35488;SDS011;21602;55.670;37.578;2024-03-06T12:58:16;4.68;;;1.85;;
35488;SDS011;21602;55.670;37.578;2024-03-06T13:00:42;8.00;;;2.00;;
35488;SDS011;21602;55.670;37.578;2024-03-06T13:03:08;10.32;;;2.38;;
35488;SDS011;21602;55.670;37.578;2024-03-06T13:05:33;6.57;;;2.20;;
35488;SDS011;21602;55.670;37.578;2024-03-06T13:07:59;8.27;;;1.80;;
35488;SDS011;21602;55.670;37.578;2024-03-06T13:10:25;4.00;;;1.77;;
35488;SDS011;21602;55.670;37.578;2024-03-06T13:12:51;8.82;;;1.90;;
35488;SDS011;21602;55.670;37.578;2024-03-06T13:15:17;3.60;;;1.73;;
35488;SDS011;21602;55.670;37.578;2024-03-06T13:17:43;13.25;;;2.05;;
35488;SDS011;21602;55.670;37.578;2024-03-06T13:20:09;15.02;;;2.33;;
35488;SDS011;21602;55.670;37.578;2024-03-06T13:22:37;12.47;;;2.90;;
35488;SDS011;21602;55.670;37.578;2024-03-06T13:25:03;8.38;;;2.22;;
35488;SDS011;21602;55.670;37.578;2024-03-06T13:27:30;5.93;;;2.25;;
35488;SDS011;21602;55.670;37.578;2024-03-06T13:29:56;4.60;;;2.25;;
35488;SDS011;21602;55.670;37.578;2024-03-06T13:32:22;11.20;;;4.88;;
35488;SDS011;21602;55.670;37.578;2024-03-06T13:34:48;7.45;;;2.13;;
35488;SDS011;21602;55.670;37.578;2024-03-06T13:37:14;11.35;;;2.13;;
35488;SDS011;21602;55.670;37.578;2024-03-06T13:39:41;6.28;;;2.13;;
35488;SDS011;21602;55.670;37.578;2024-03-06T13:42:07;7.00;;;2.83;;
35488;SDS011;21602;55.670;37.578;2024-03-06T13:44:34;4.47;;;2.15;;
35488;SDS011;21602;55.670;37.578;2024-03-06T13:47:00;4.40;;;2.35;;
35488;SDS011;21602;55.670;37.578;2024-03-06T13:49:34;5.95;;;2.60;;
35488;SDS011;21602;55.670;37.578;2024-03-06T13:52:05;11.60;;;2.53;;
35488;SDS011;21602;55.670;37.578;2024-03-06T13:54:32;7.25;;;2.70;;
35488;SDS011;21602;55.670;37.578;2024-03-06T13:57:00;5.30;;;2.53;;
35488;SDS011;21602;55.670;37.578;2024-03-06T14:04:24;6.20;;;1.88;;
35488;SDS011;21602;55.670;37.578;2024-03-06T14:06:50;7.57;;;1.83;;
35488;SDS011;21602;55.670;37.578;2024-03-06T14:09:16;4.03;;;1.90;;
35488;SDS011;21602;55.670;37.578;2024-03-06T14:11:44;3.88;;;1.77;;
35488;SDS011;21602;55.670;37.578;2024-03-06T14:14:10;7.93;;;2.17;;
35488;SDS011;21602;55.670;37.578;2024-03-06T14:16:39;8.73;;;2.08;;
35488;SDS011;21602;55.670;37.578;2024-03-06T14:19:05;5.22;;;2.42;;
35488;SDS011;21602;55.670;37.578;2024-03-06T14:21:31;6.18;;;2.25;;
35488;SDS011;21602;55.670;37.578;2024-03-06T14:24:00;9.43;;;2.17;;
35488;SDS011;21602;55.670;37.578;2024-03-06T14:26:38;5.05;;;1.60;;
35488;SDS011;21602;55.670;37.578;2024-03-06T14:29:05;5.30;;;2.28;;
35488;SDS011;21602;55.670;37.578;2024-03-06T14:31:33;12.27;;;1.88;;
35488;SDS011;21602;55.670;37.578;2024-03-06T14:34:02;9.52;;;1.73;;
35488;SDS011;21602;55.670;37.578;2024-03-06T14:36:27;10.32;;;1.88;;
35488;SDS011;21602;55.670;37.578;2024-03-06T14:38:53;6.28;;;1.85;;
35488;SDS011;21602;55.670;37.578;2024-03-06T14:41:19;7.28;;;1.63;;
35488;SDS011;21602;55.670;37.578;2024-03-06T14:43:45;8.00;;;1.70;;
35488;SDS011;21602;55.670;37.578;2024-03-06T14:46:11;6.53;;;1.65;;
35488;SDS011;21602;55.670;37.578;2024-03-06T14:48:38;8.77;;;1.80;;
35488;SDS011;21602;55.670;37.578;2024-03-06T14:51:08;9.52;;;1.42;;
35488;SDS011;21602;55.670;37.578;2024-03-06T14:53:34;4.72;;;1.73;;
35488;SDS011;21602;55.670;37.578;2024-03-06T14:56:00;6.03;;;1.80;;
35488;SDS011;21602;55.670;37.578;2024-03-06T14:58:26;6.00;;;1.63;;
35488;SDS011;21602;55.670;37.578;2024-03-06T15:00:51;9.98;;;2.00;;
35488;SDS011;21602;55.670;37.578;2024-03-06T15:03:17;7.90;;;1.80;;
35488;SDS011;21602;55.670;37.578;2024-03-06T15:05:43;4.95;;;1.70;;
35488;SDS011;21602;55.670;37.578;2024-03-06T15:08:10;6.25;;;2.05;;
35488;SDS011;21602;55.670;37.578;2024-03-06T15:10:44;6.93;;;1.67;;
35488;SDS011;21602;55.670;37.578;2024-03-06T15:13:10;4.43;;;1.85;;
35488;SDS011;21602;55.670;37.578;2024-03-06T15:15:38;10.75;;;1.73;;
35488;SDS011;21602;55.670;37.578;2024-03-06T15:18:05;3.08;;;1.73;;